BFF - Western Nebraska Rgnl/Wm B Heilig Fld/Scottsbluff

Pirep is a free, collaborative database of all public and private airports located within the United States. All pilots are welcome to contribute, edit, and improve any airport they have local knowledge about, no registration required.
Uploaded photos will be licensed under a CC BY-SA 4.0 license. Please only upload photos you have the rights to use.
Tags
Public
Food
Events
METAR / TAF
Edit Tags
Camping
Lodging
Car Rental
Bicycles
Swimming
Golfing
Fishing
Hot Springs
Museum
Flying Clubs
Airpark
Upcoming Events
*
*
*

Where exactly on/near the airport is this event taking place?

Is there a webpage with more information for this event?

Who should be contacted for more information?

What is this event all about?

Repeat every
Description
Last updated: 2023-05-19 21:56:24 MDT
Transient Parking
Fuel Location
Landing & Tie-down Fees
Crew Car Availability
Flying Clubs
WiFi Access
Airport Statistics
Location: Scottsbluff, NE
Elevation: 3,967ft
Sectional: Cheyenne
Activation date: Feb 1944
Fuel: 100LL, A (prices)
Runway 12/30: 8,279ft
Runway 05/23: 8,002ft
Access: Open to the public
Current Weather — VFR
  • Weather data is strictly informational and not for flight planning purposes.
  • METAR
    2024-04-24 07:53:00 MDT
    Ceiling Wind Temperature Dewpoint Weather Visbility
    Sky clear 160° @ 16kt 53°F 30°F N/A 10SM
    Raw: KBFF 241353Z AUTO 16016KT 10SM CLR 12/M01 A3006 RMK AO2 SLP159 T01221011
  • TAF
    2024-04-24 06:00:00 MDT – 2024-04-24 15:00:00 MDT
    Ceiling Wind Weather Visbility
    10,000ft 140° @ 18kt, gusts 28kt N/A 6SM
    Clouds: Broken @ 10,000ft
    Raw: KBFF 241120Z 2412/2512 14018G28KT P6SM BKN100 FM242100 15012G18KT P6SM VCTS BKN100CB FM250400 12012KT P6SM BKN100
  • TAF
    2024-04-24 15:00:00 MDT – 2024-04-24 22:00:00 MDT
    Ceiling Wind Weather Visbility
    10,000ft 150° @ 12kt, gusts 18kt Thunderstorm in vicinity 6SM
    Clouds: Broken @ 10,000ft
    Raw: KBFF 241120Z 2412/2512 14018G28KT P6SM BKN100 FM242100 15012G18KT P6SM VCTS BKN100CB FM250400 12012KT P6SM BKN100
  • TAF
    2024-04-24 22:00:00 MDT – 2024-04-25 06:00:00 MDT
    Ceiling Wind Weather Visbility
    10,000ft 120° @ 12kt N/A 6SM
    Clouds: Broken @ 10,000ft
    Raw: KBFF 241120Z 2412/2512 14018G28KT P6SM BKN100 FM242100 15012G18KT P6SM VCTS BKN100CB FM250400 12012KT P6SM BKN100
Click/tap to add an annotation marker to the map
Airport Webcams
No webcams added yet.
Direct links to live image URLs will be displayed inline on this page. URLs to separate webpages will be linked to.
URL:
Direct links to live image URLs will be displayed inline on this page. URLs to separate webpages will be linked to.
URL:
Remarks
  • Per amgr use ctaf when operating on the arpt.
  • Ppr 24 hrs for acr opns with more than 30 psgr seats call amgr 308-635-4941. air carrier ops over 9 passenger seats not authorized in excess of 15 minutes before or after scheduled arrival/dep times except with prior coordination with airport mgr. arff index b equipment is provided.
  • Ry 30 designated calm wind ry.
  • Waterfowl on & invof arpt.
  • Line of site restrictions btwn apch ends of rys 05 & 30 & also btwn the apch ends of rys 12 & 23.
Comments
Leave a comment What was your experience like at this airport?